sensor_id;sensor_type;location;lat;lon;timestamp;temperature;humidity
23100;DHT22;53791;50.696;4.396;2022-11-21T00:01:59;7.30;99.90
23100;DHT22;53791;50.696;4.396;2022-11-21T00:04:27;7.30;99.90
23100;DHT22;53791;50.696;4.396;2022-11-21T00:06:56;7.40;99.90
23100;DHT22;53791;50.696;4.396;2022-11-21T00:09:27;7.60;99.90
23100;DHT22;53791;50.696;4.396;2022-11-21T00:11:58;7.60;99.90
23100;DHT22;53791;50.696;4.396;2022-11-21T00:14:32;7.70;99.90
23100;DHT22;53791;50.696;4.396;2022-11-21T00:16:56;7.60;99.90
23100;DHT22;53791;50.696;4.396;2022-11-21T00:19:23;7.50;99.90
23100;DHT22;53791;50.696;4.396;2022-11-21T00:21:51;7.50;99.90
23100;DHT22;53791;50.696;4.396;2022-11-21T00:24:20;7.40;99.90
23100;DHT22;53791;50.696;4.396;2022-11-21T00:26:48;7.40;99.90
23100;DHT22;53791;50.696;4.396;2022-11-21T00:29:17;7.40;99.90
23100;DHT22;53791;50.696;4.396;2022-11-21T00:31:44;7.40;99.90
23100;DHT22;53791;50.696;4.396;2022-11-21T00:34:12;7.30;99.90
23100;DHT22;53791;50.696;4.396;2022-11-21T00:36:41;7.20;99.90
23100;DHT22;53791;50.696;4.396;2022-11-21T00:39:09;7.20;99.90
23100;DHT22;53791;50.696;4.396;2022-11-21T00:41:36;7.20;99.90
23100;DHT22;53791;50.696;4.396;2022-11-21T00:44:05;7.20;99.90
23100;DHT22;53791;50.696;4.396;2022-11-21T00:46:33;7.20;99.90
23100;DHT22;53791;50.696;4.396;2022-11-21T00:49:00;7.20;99.90
23100;DHT22;53791;50.696;4.396;2022-11-21T00:51:28;7.20;99.90
23100;DHT22;53791;50.696;4.396;2022-11-21T00:53:55;7.20;99.90
23100;DHT22;53791;50.696;4.396;2022-11-21T00:56:23;7.20;99.90
23100;DHT22;53791;50.696;4.396;2022-11-21T00:58:51;7.10;99.90
23100;DHT22;53791;50.696;4.396;2022-11-21T01:01:18;7.10;99.90
23100;DHT22;53791;50.696;4.396;2022-11-21T01:03:46;7.20;99.90
23100;DHT22;53791;50.696;4.396;2022-11-21T01:06:16;7.20;99.90
23100;DHT22;53791;50.696;4.396;2022-11-21T01:08:43;7.00;99.90
23100;DHT22;53791;50.696;4.396;2022-11-21T01:11:14;7.00;99.90
23100;DHT22;53791;50.696;4.396;2022-11-21T01:13:42;7.10;99.90
23100;DHT22;53791;50.696;4.396;2022-11-21T01:16:13;7.00;99.90
23100;DHT22;53791;50.696;4.396;2022-11-21T01:18:41;7.00;99.90
23100;DHT22;53791;50.696;4.396;2022-11-21T01:23:57;7.10;99.90
23100;DHT22;53791;50.696;4.396;2022-11-21T01:26:30;7.10;99.90
23100;DHT22;53791;50.696;4.396;2022-11-21T01:29:00;7.00;99.90
23100;DHT22;53791;50.696;4.396;2022-11-21T01:31:31;7.10;99.90
23100;DHT22;53791;50.696;4.396;2022-11-21T01:33:59;7.10;99.90
23100;DHT22;53791;50.696;4.396;2022-11-21T01:36:28;7.10;99.90
23100;DHT22;53791;50.696;4.396;2022-11-21T01:38:59;7.10;99.90
23100;DHT22;53791;50.696;4.396;2022-11-21T01:41:32;7.00;99.90
23100;DHT22;53791;50.696;4.396;2022-11-21T01:44:17;7.00;99.90
23100;DHT22;53791;50.696;4.396;2022-11-21T01:46:32;6.90;99.90
23100;DHT22;53791;50.696;4.396;2022-11-21T01:49:08;6.90;99.90
23100;DHT22;53791;50.696;4.396;2022-11-21T01:52:02;6.80;99.90
23100;DHT22;53791;50.696;4.396;2022-11-21T01:57:11;6.80;99.90
23100;DHT22;53791;50.696;4.396;2022-11-21T01:59:43;6.90;99.90
23100;DHT22;53791;50.696;4.396;2022-11-21T02:02:11;6.70;99.90
23100;DHT22;53791;50.696;4.396;2022-11-21T02:04:41;6.80;99.90
23100;DHT22;53791;50.696;4.396;2022-11-21T02:07:10;6.80;99.90
23100;DHT22;53791;50.696;4.396;2022-11-21T02:09:41;6.90;99.90
23100;DHT22;53791;50.696;4.396;2022-11-21T02:12:17;6.70;99.90
23100;DHT22;53791;50.696;4.396;2022-11-21T02:14:43;6.70;99.90
23100;DHT22;53791;50.696;4.396;2022-11-21T02:17:10;6.60;99.90
23100;DHT22;53791;50.696;4.396;2022-11-21T02:19:55;6.70;99.90
23100;DHT22;53791;50.696;4.396;2022-11-21T02:23:04;6.60;99.90
23100;DHT22;53791;50.696;4.396;2022-11-21T02:25:29;6.50;99.90
23100;DHT22;53791;50.696;4.396;2022-11-21T02:28:06;6.60;99.90
23100;DHT22;53791;50.696;4.396;2022-11-21T02:30:36;6.70;99.90
23100;DHT22;53791;50.696;4.396;2022-11-21T02:33:04;6.60;99.90
23100;DHT22;53791;50.696;4.396;2022-11-21T02:35:32;6.60;99.90
23100;DHT22;53791;50.696;4.396;2022-11-21T02:38:05;6.60;99.90
23100;DHT22;53791;50.696;4.396;2022-11-21T02:40:35;6.70;99.90
23100;DHT22;53791;50.696;4.396;2022-11-21T02:43:18;6.70;99.90
23100;DHT22;53791;50.696;4.396;2022-11-21T02:45:45;6.60;99.90
23100;DHT22;53791;50.696;4.396;2022-11-21T02:48:15;6.70;99.90
23100;DHT22;53791;50.696;4.396;2022-11-21T02:50:44;6.70;99.90
23100;DHT22;53791;50.696;4.396;2022-11-21T02:53:17;6.60;99.90
23100;DHT22;53791;50.696;4.396;2022-11-21T02:55:44;6.50;99.90
23100;DHT22;53791;50.696;4.396;2022-11-21T02:58:12;6.60;99.90
23100;DHT22;53791;50.696;4.396;2022-11-21T03:00:40;6.60;99.90
23100;DHT22;53791;50.696;4.396;2022-11-21T03:03:09;6.60;99.90
23100;DHT22;53791;50.696;4.396;2022-11-21T03:05:38;6.70;99.90
23100;DHT22;53791;50.696;4.396;2022-11-21T03:08:06;6.80;99.90
23100;DHT22;53791;50.696;4.396;2022-11-21T03:10:37;6.70;99.90
23100;DHT22;53791;50.696;4.396;2022-11-21T03:13:04;6.70;99.90
23100;DHT22;53791;50.696;4.396;2022-11-21T03:15:33;6.70;99.90
23100;DHT22;53791;50.696;4.396;2022-11-21T03:18:01;6.70;99.90
23100;DHT22;53791;50.696;4.396;2022-11-21T03:20:30;6.70;99.90
23100;DHT22;53791;50.696;4.396;2022-11-21T03:23:00;6.80;99.90
23100;DHT22;53791;50.696;4.396;2022-11-21T03:28:16;6.90;99.90
23100;DHT22;53791;50.696;4.396;2022-11-21T03:30:45;6.80;99.90
23100;DHT22;53791;50.696;4.396;2022-11-21T03:33:15;6.70;99.90
23100;DHT22;53791;50.696;4.396;2022-11-21T03:35:42;6.70;99.90
23100;DHT22;53791;50.696;4.396;2022-11-21T03:38:10;6.80;99.90
23100;DHT22;53791;50.696;4.396;2022-11-21T03:40:38;6.70;99.90
23100;DHT22;53791;50.696;4.396;2022-11-21T03:43:05;6.80;99.90
23100;DHT22;53791;50.696;4.396;2022-11-21T03:45:38;6.80;99.90
23100;DHT22;53791;50.696;4.396;2022-11-21T03:48:13;6.80;99.90
23100;DHT22;53791;50.696;4.396;2022-11-21T03:50:43;6.90;99.90
23100;DHT22;53791;50.696;4.396;2022-11-21T03:53:11;7.00;99.90
23100;DHT22;53791;50.696;4.396;2022-11-21T03:55:39;7.00;99.90
23100;DHT22;53791;50.696;4.396;2022-11-21T03:58:12;7.00;99.90
23100;DHT22;53791;50.696;4.396;2022-11-21T04:00:39;7.00;99.90
23100;DHT22;53791;50.696;4.396;2022-11-21T04:03:07;7.10;99.90
23100;DHT22;53791;50.696;4.396;2022-11-21T04:05:34;7.00;99.90
23100;DHT22;53791;50.696;4.396;2022-11-21T04:08:03;6.90;99.90
23100;DHT22;53791;50.696;4.396;2022-11-21T04:10:31;7.00;99.90
23100;DHT22;53791;50.696;4.396;2022-11-21T04:12:58;6.90;99.90
23100;DHT22;53791;50.696;4.396;2022-11-21T04:15:27;6.90;99.90
23100;DHT22;53791;50.696;4.396;2022-11-21T04:17:55;7.00;99.90
23100;DHT22;53791;50.696;4.396;2022-11-21T04:20:24;6.90;99.90
23100;DHT22;53791;50.696;4.396;2022-11-21T04:22:51;7.00;99.90
23100;DHT22;53791;50.696;4.396;2022-11-21T04:25:19;6.90;99.90
23100;DHT22;53791;50.696;4.396;2022-11-21T04:27:47;6.80;99.90
23100;DHT22;53791;50.696;4.396;2022-11-21T04:30:15;7.00;99.90
23100;DHT22;53791;50.696;4.396;2022-11-21T04:32:43;7.10;99.90
23100;DHT22;53791;50.696;4.396;2022-11-21T04:35:12;7.10;99.90
23100;DHT22;53791;50.696;4.396;2022-11-21T04:37:40;7.10;99.90
23100;DHT22;53791;50.696;4.396;2022-11-21T04:40:08;7.20;99.90
23100;DHT22;53791;50.696;4.396;2022-11-21T04:42:36;7.10;99.90
23100;DHT22;53791;50.696;4.396;2022-11-21T04:45:04;7.00;99.90
23100;DHT22;53791;50.696;4.396;2022-11-21T04:47:31;7.00;99.90
23100;DHT22;53791;50.696;4.396;2022-11-21T04:49:59;7.00;99.90
23100;DHT22;53791;50.696;4.396;2022-11-21T04:52:26;6.90;99.90
23100;DHT22;53791;50.696;4.396;2022-11-21T04:54:54;6.70;99.90
23100;DHT22;53791;50.696;4.396;2022-11-21T04:57:22;6.70;99.90
23100;DHT22;53791;50.696;4.396;2022-11-21T04:59:50;6.70;99.90
23100;DHT22;53791;50.696;4.396;2022-11-21T05:02:17;6.80;99.90
23100;DHT22;53791;50.696;4.396;2022-11-21T05:04:46;6.80;99.90
23100;DHT22;53791;50.696;4.396;2022-11-21T05:07:14;6.90;99.90
23100;DHT22;53791;50.696;4.396;2022-11-21T05:09:41;6.90;99.90
23100;DHT22;53791;50.696;4.396;2022-11-21T05:12:09;6.90;99.90
23100;DHT22;53791;50.696;4.396;2022-11-21T05:14:56;6.90;99.90
23100;DHT22;53791;50.696;4.396;2022-11-21T05:17:26;6.80;99.90
23100;DHT22;53791;50.696;4.396;2022-11-21T05:19:54;6.80;99.90
23100;DHT22;53791;50.696;4.396;2022-11-21T05:22:24;6.80;99.90
23100;DHT22;53791;50.696;4.396;2022-11-21T05:24:53;6.80;99.90
23100;DHT22;53791;50.696;4.396;2022-11-21T05:27:20;6.80;99.90
23100;DHT22;53791;50.696;4.396;2022-11-21T05:29:48;6.80;99.90
23100;DHT22;53791;50.696;4.396;2022-11-21T05:32:15;6.70;99.90
23100;DHT22;53791;50.696;4.396;2022-11-21T05:34:44;6.50;99.90
23100;DHT22;53791;50.696;4.396;2022-11-21T05:37:12;6.50;99.90
23100;DHT22;53791;50.696;4.396;2022-11-21T05:39:42;6.40;99.90
23100;DHT22;53791;50.696;4.396;2022-11-21T05:42:09;6.60;99.90
23100;DHT22;53791;50.696;4.396;2022-11-21T05:44:38;6.40;99.90
23100;DHT22;53791;50.696;4.396;2022-11-21T05:47:07;6.40;99.90
23100;DHT22;53791;50.696;4.396;2022-11-21T05:49:36;6.30;99.90
23100;DHT22;53791;50.696;4.396;2022-11-21T05:52:04;6.10;99.90
23100;DHT22;53791;50.696;4.396;2022-11-21T05:54:31;6.10;99.90
23100;DHT22;53791;50.696;4.396;2022-11-21T05:57:00;6.20;99.90
23100;DHT22;53791;50.696;4.396;2022-11-21T05:59:27;6.10;99.90
23100;DHT22;53791;50.696;4.396;2022-11-21T06:01:55;6.00;99.90
23100;DHT22;53791;50.696;4.396;2022-11-21T06:04:41;6.00;99.90
23100;DHT22;53791;50.696;4.396;2022-11-21T06:07:10;6.10;99.90
23100;DHT22;53791;50.696;4.396;2022-11-21T06:09:40;6.00;99.90
23100;DHT22;53791;50.696;4.396;2022-11-21T06:12:08;6.00;99.90
23100;DHT22;53791;50.696;4.396;2022-11-21T06:14:35;5.90;99.90
23100;DHT22;53791;50.696;4.396;2022-11-21T06:17:03;5.90;99.90
23100;DHT22;53791;50.696;4.396;2022-11-21T06:19:30;5.80;99.90
23100;DHT22;53791;50.696;4.396;2022-11-21T06:22:00;5.80;99.90
23100;DHT22;53791;50.696;4.396;2022-11-21T06:24:27;5.70;99.90
23100;DHT22;53791;50.696;4.396;2022-11-21T06:26:55;5.80;99.90
23100;DHT22;53791;50.696;4.396;2022-11-21T06:29:23;5.80;99.90
23100;DHT22;53791;50.696;4.396;2022-11-21T06:31:50;5.70;99.90
23100;DHT22;53791;50.696;4.396;2022-11-21T06:34:20;5.70;99.90
23100;DHT22;53791;50.696;4.396;2022-11-21T06:36:47;5.70;99.90
23100;DHT22;53791;50.696;4.396;2022-11-21T06:39:16;5.80;99.90
23100;DHT22;53791;50.696;4.396;2022-11-21T06:41:44;5.80;99.90
23100;DHT22;53791;50.696;4.396;2022-11-21T06:44:14;5.80;99.90
23100;DHT22;53791;50.696;4.396;2022-11-21T06:46:41;5.80;99.90
23100;DHT22;53791;50.696;4.396;2022-11-21T06:49:09;5.70;99.90
23100;DHT22;53791;50.696;4.396;2022-11-21T06:51:38;5.70;99.90
23100;DHT22;53791;50.696;4.396;2022-11-21T06:54:05;5.70;99.90
23100;DHT22;53791;50.696;4.396;2022-11-21T06:56:33;5.80;99.90
23100;DHT22;53791;50.696;4.396;2022-11-21T06:59:06;5.80;99.90
23100;DHT22;53791;50.696;4.396;2022-11-21T07:01:34;5.80;99.90
23100;DHT22;53791;50.696;4.396;2022-11-21T07:04:01;5.70;99.90
23100;DHT22;53791;50.696;4.396;2022-11-21T07:06:29;5.60;99.90
23100;DHT22;53791;50.696;4.396;2022-11-21T07:08:57;5.50;99.90
23100;DHT22;53791;50.696;4.396;2022-11-21T07:11:24;5.60;99.90
23100;DHT22;53791;50.696;4.396;2022-11-21T07:13:52;5.50;99.90
23100;DHT22;53791;50.696;4.396;2022-11-21T07:16:20;5.50;99.90
23100;DHT22;53791;50.696;4.396;2022-11-21T07:18:47;5.50;99.90
23100;DHT22;53791;50.696;4.396;2022-11-21T07:21:15;5.60;99.90
23100;DHT22;53791;50.696;4.396;2022-11-21T07:23:44;5.50;99.90
23100;DHT22;53791;50.696;4.396;2022-11-21T07:26:11;5.50;99.90
23100;DHT22;53791;50.696;4.396;2022-11-21T07:28:39;5.60;99.90
23100;DHT22;53791;50.696;4.396;2022-11-21T07:31:10;5.60;99.90
23100;DHT22;53791;50.696;4.396;2022-11-21T07:33:37;5.60;99.90
23100;DHT22;53791;50.696;4.396;2022-11-21T07:36:05;5.70;99.90
23100;DHT22;53791;50.696;4.396;2022-11-21T07:38:34;5.70;99.90
23100;DHT22;53791;50.696;4.396;2022-11-21T07:41:03;5.90;99.90
23100;DHT22;53791;50.696;4.396;2022-11-21T07:43:34;6.00;99.90
23100;DHT22;53791;50.696;4.396;2022-11-21T07:46:06;6.20;99.90
23100;DHT22;53791;50.696;4.396;2022-11-21T07:48:32;6.30;99.90
23100;DHT22;53791;50.696;4.396;2022-11-21T07:51:02;6.40;99.90
23100;DHT22;53791;50.696;4.396;2022-11-21T07:53:30;6.60;99.90
23100;DHT22;53791;50.696;4.396;2022-11-21T07:55:58;6.90;99.90
23100;DHT22;53791;50.696;4.396;2022-11-21T07:58:26;7.00;99.90
23100;DHT22;53791;50.696;4.396;2022-11-21T08:00:54;7.10;99.90
23100;DHT22;53791;50.696;4.396;2022-11-21T08:03:24;7.20;99.90
23100;DHT22;53791;50.696;4.396;2022-11-21T08:05:51;7.10;99.90
23100;DHT22;53791;50.696;4.396;2022-11-21T08:08:20;7.10;99.90
23100;DHT22;53791;50.696;4.396;2022-11-21T08:10:48;7.00;99.90
23100;DHT22;53791;50.696;4.396;2022-11-21T08:13:16;6.90;99.90
23100;DHT22;53791;50.696;4.396;2022-11-21T08:15:44;7.00;99.90
23100;DHT22;53791;50.696;4.396;2022-11-21T08:18:14;7.10;99.90
23100;DHT22;53791;50.696;4.396;2022-11-21T08:20:43;7.10;99.90
23100;DHT22;53791;50.696;4.396;2022-11-21T08:23:12;6.80;99.90
23100;DHT22;53791;50.696;4.396;2022-11-21T08:25:40;6.70;99.90
23100;DHT22;53791;50.696;4.396;2022-11-21T08:28:11;6.70;99.90
23100;DHT22;53791;50.696;4.396;2022-11-21T08:30:40;6.60;99.90
23100;DHT22;53791;50.696;4.396;2022-11-21T08:33:09;6.60;99.90
23100;DHT22;53791;50.696;4.396;2022-11-21T08:35:37;6.40;99.90
23100;DHT22;53791;50.696;4.396;2022-11-21T08:38:05;6.50;99.90
23100;DHT22;53791;50.696;4.396;2022-11-21T08:40:35;6.70;99.90
23100;DHT22;53791;50.696;4.396;2022-11-21T08:43:07;6.80;99.90
23100;DHT22;53791;50.696;4.396;2022-11-21T08:45:36;7.00;99.90
23100;DHT22;53791;50.696;4.396;2022-11-21T08:48:10;7.00;99.90
23100;DHT22;53791;50.696;4.396;2022-11-21T08:50:44;7.00;99.90
23100;DHT22;53791;50.696;4.396;2022-11-21T08:53:08;7.00;99.90
23100;DHT22;53791;50.696;4.396;2022-11-21T08:55:36;6.80;99.90
23100;DHT22;53791;50.696;4.396;2022-11-21T08:58:03;6.70;99.90
23100;DHT22;53791;50.696;4.396;2022-11-21T09:00:31;6.50;99.90
23100;DHT22;53791;50.696;4.396;2022-11-21T09:03:02;6.50;99.90
23100;DHT22;53791;50.696;4.396;2022-11-21T09:05:27;6.40;99.90
23100;DHT22;53791;50.696;4.396;2022-11-21T09:07:56;6.50;99.90
23100;DHT22;53791;50.696;4.396;2022-11-21T09:10:25;6.30;99.90
23100;DHT22;53791;50.696;4.396;2022-11-21T09:12:58;6.20;99.90
23100;DHT22;53791;50.696;4.396;2022-11-21T09:15:26;6.10;99.90
23100;DHT22;53791;50.696;4.396;2022-11-21T09:18:11;6.30;99.90
23100;DHT22;53791;50.696;4.396;2022-11-21T09:20:40;6.20;99.90
23100;DHT22;53791;50.696;4.396;2022-11-21T09:23:11;6.10;99.90
23100;DHT22;53791;50.696;4.396;2022-11-21T09:25:38;6.00;99.90
23100;DHT22;53791;50.696;4.396;2022-11-21T09:28:08;5.90;99.90
23100;DHT22;53791;50.696;4.396;2022-11-21T09:30:36;5.80;99.90
23100;DHT22;53791;50.696;4.396;2022-11-21T09:33:10;5.80;99.90
23100;DHT22;53791;50.696;4.396;2022-11-21T09:35:34;5.80;99.90
23100;DHT22;53791;50.696;4.396;2022-11-21T09:38:01;5.90;99.90
23100;DHT22;53791;50.696;4.396;2022-11-21T09:40:30;5.90;99.90
23100;DHT22;53791;50.696;4.396;2022-11-21T09:45:46;5.90;99.90
23100;DHT22;53791;50.696;4.396;2022-11-21T09:50:53;5.90;99.90
23100;DHT22;53791;50.696;4.396;2022-11-21T09:53:25;5.90;99.90
23100;DHT22;53791;50.696;4.396;2022-11-21T09:55:54;6.00;99.90
23100;DHT22;53791;50.696;4.396;2022-11-21T10:00:59;6.10;99.90
23100;DHT22;53791;50.696;4.396;2022-11-21T10:03:29;6.00;99.90
23100;DHT22;53791;50.696;4.396;2022-11-21T10:06:16;6.00;99.90
23100;DHT22;53791;50.696;4.396;2022-11-21T10:08:44;6.10;99.90
23100;DHT22;53791;50.696;4.396;2022-11-21T10:11:33;6.20;99.90
23100;DHT22;53791;50.696;4.396;2022-11-21T10:14:16;6.20;99.90
23100;DHT22;53791;50.696;4.396;2022-11-21T10:19:27;6.30;99.90
23100;DHT22;53791;50.696;4.396;2022-11-21T10:22:06;6.30;99.90
23100;DHT22;53791;50.696;4.396;2022-11-21T10:29:37;6.40;99.90
23100;DHT22;53791;50.696;4.396;2022-11-21T10:32:18;6.50;99.90
23100;DHT22;53791;50.696;4.396;2022-11-21T10:34:45;6.50;99.90
23100;DHT22;53791;50.696;4.396;2022-11-21T10:39:48;6.80;99.90
23100;DHT22;53791;50.696;4.396;2022-11-21T10:45:07;7.10;99.90
23100;DHT22;53791;50.696;4.396;2022-11-21T10:47:46;7.20;99.90
23100;DHT22;53791;50.696;4.396;2022-11-21T10:50:47;7.30;99.90
23100;DHT22;53791;50.696;4.396;2022-11-21T10:53:05;7.40;99.90
23100;DHT22;53791;50.696;4.396;2022-11-21T10:55:34;7.30;99.90
23100;DHT22;53791;50.696;4.396;2022-11-21T10:58:15;7.30;99.90
23100;DHT22;53791;50.696;4.396;2022-11-21T11:00:32;7.30;99.90
23100;DHT22;53791;50.696;4.396;2022-11-21T11:03:06;7.40;99.90
23100;DHT22;53791;50.696;4.396;2022-11-21T11:05:33;7.60;99.90
23100;DHT22;53791;50.696;4.396;2022-11-21T11:08:12;7.60;99.90
23100;DHT22;53791;50.696;4.396;2022-11-21T11:10:42;7.70;99.90
23100;DHT22;53791;50.696;4.396;2022-11-21T11:13:20;7.80;99.90
23100;DHT22;53791;50.696;4.396;2022-11-21T11:16:15;7.90;99.90
23100;DHT22;53791;50.696;4.396;2022-11-21T11:18:50;8.00;99.90
23100;DHT22;53791;50.696;4.396;2022-11-21T11:21:19;8.10;99.90
23100;DHT22;53791;50.696;4.396;2022-11-21T11:23:48;8.30;99.90
23100;DHT22;53791;50.696;4.396;2022-11-21T11:26:24;8.20;99.90
23100;DHT22;53791;50.696;4.396;2022-11-21T11:29:03;8.20;99.90
23100;DHT22;53791;50.696;4.396;2022-11-21T11:31:22;8.30;99.90
23100;DHT22;53791;50.696;4.396;2022-11-21T11:33:52;8.50;99.90
23100;DHT22;53791;50.696;4.396;2022-11-21T11:36:37;8.50;99.90
23100;DHT22;53791;50.696;4.396;2022-11-21T11:39:19;8.50;99.90
23100;DHT22;53791;50.696;4.396;2022-11-21T11:42:03;8.60;99.90
23100;DHT22;53791;50.696;4.396;2022-11-21T11:47:50;8.60;99.90
23100;DHT22;53791;50.696;4.396;2022-11-21T11:50:31;8.60;99.90
23100;DHT22;53791;50.696;4.396;2022-11-21T11:53:24;8.70;99.90
23100;DHT22;53791;50.696;4.396;2022-11-21T11:58:58;8.70;99.90
23100;DHT22;53791;50.696;4.396;2022-11-21T12:01:34;8.70;99.90
23100;DHT22;53791;50.696;4.396;2022-11-21T12:04:13;8.80;99.90
23100;DHT22;53791;50.696;4.396;2022-11-21T12:06:50;8.80;99.90
23100;DHT22;53791;50.696;4.396;2022-11-21T12:09:55;8.80;99.90
23100;DHT22;53791;50.696;4.396;2022-11-21T12:12:31;8.80;99.90
23100;DHT22;53791;50.696;4.396;2022-11-21T12:15:22;8.90;99.90
23100;DHT22;53791;50.696;4.396;2022-11-21T12:18:35;8.80;99.90
23100;DHT22;53791;50.696;4.396;2022-11-21T12:21:10;8.90;99.90
23100;DHT22;53791;50.696;4.396;2022-11-21T12:23:47;9.00;99.90
23100;DHT22;53791;50.696;4.396;2022-11-21T12:26:55;9.00;99.90
23100;DHT22;53791;50.696;4.396;2022-11-21T12:35:36;9.10;99.90
23100;DHT22;53791;50.696;4.396;2022-11-21T12:46:53;9.20;99.90
23100;DHT22;53791;50.696;4.396;2022-11-21T12:49:41;9.20;99.90
23100;DHT22;53791;50.696;4.396;2022-11-21T12:55:28;9.50;99.90
23100;DHT22;53791;50.696;4.396;2022-11-21T12:58:15;9.60;99.90
23100;DHT22;53791;50.696;4.396;2022-11-21T13:00:41;9.50;99.90
23100;DHT22;53791;50.696;4.396;2022-11-21T13:05:49;9.50;99.90
23100;DHT22;53791;50.696;4.396;2022-11-21T13:08:29;9.50;99.90
23100;DHT22;53791;50.696;4.396;2022-11-21T13:14:34;9.50;99.90
23100;DHT22;53791;50.696;4.396;2022-11-21T13:17:22;9.50;99.90
23100;DHT22;53791;50.696;4.396;2022-11-21T13:20:00;9.50;99.90
23100;DHT22;53791;50.696;4.396;2022-11-21T13:30:50;9.40;99.90
23100;DHT22;53791;50.696;4.396;2022-11-21T13:33:45;9.40;99.90
23100;DHT22;53791;50.696;4.396;2022-11-21T13:44:36;9.30;99.90
23100;DHT22;53791;50.696;4.396;2022-11-21T13:47:28;9.40;99.90
23100;DHT22;53791;50.696;4.396;2022-11-21T13:50:18;9.30;99.90
23100;DHT22;53791;50.696;4.396;2022-11-21T13:52:48;9.20;99.90
23100;DHT22;53791;50.696;4.396;2022-11-21T13:58:33;9.20;99.90
23100;DHT22;53791;50.696;4.396;2022-11-21T14:01:27;9.20;99.90
23100;DHT22;53791;50.696;4.396;2022-11-21T14:09:22;9.30;99.90
23100;DHT22;53791;50.696;4.396;2022-11-21T14:11:45;9.40;99.90
23100;DHT22;53791;50.696;4.396;2022-11-21T14:14:25;9.50;99.90
23100;DHT22;53791;50.696;4.396;2022-11-21T14:19:30;9.50;99.90
23100;DHT22;53791;50.696;4.396;2022-11-21T14:22:00;9.40;99.90
23100;DHT22;53791;50.696;4.396;2022-11-21T14:24:28;9.40;99.90
23100;DHT22;53791;50.696;4.396;2022-11-21T14:26:56;9.40;99.90
23100;DHT22;53791;50.696;4.396;2022-11-21T14:29:36;9.40;99.90
23100;DHT22;53791;50.696;4.396;2022-11-21T14:31:57;9.30;99.90
23100;DHT22;53791;50.696;4.396;2022-11-21T14:34:29;9.40;99.90
23100;DHT22;53791;50.696;4.396;2022-11-21T14:37:01;9.40;99.90
23100;DHT22;53791;50.696;4.396;2022-11-21T14:39:30;9.40;99.90
23100;DHT22;53791;50.696;4.396;2022-11-21T14:42:01;9.40;99.90
23100;DHT22;53791;50.696;4.396;2022-11-21T14:44:29;9.50;99.90
23100;DHT22;53791;50.696;4.396;2022-11-21T14:47:14;9.50;99.90
23100;DHT22;53791;50.696;4.396;2022-11-21T14:49:49;9.40;99.90
23100;DHT22;53791;50.696;4.396;2022-11-21T14:52:19;9.40;99.90
23100;DHT22;53791;50.696;4.396;2022-11-21T14:54:50;9.50;99.90
23100;DHT22;53791;50.696;4.396;2022-11-21T14:57:26;9.50;99.90
23100;DHT22;53791;50.696;4.396;2022-11-21T14:59:55;9.40;99.90
23100;DHT22;53791;50.696;4.396;2022-11-21T15:02:31;9.40;99.90
23100;DHT22;53791;50.696;4.396;2022-11-21T15:04:59;9.30;99.90
23100;DHT22;53791;50.696;4.396;2022-11-21T15:07:27;9.40;99.90
23100;DHT22;53791;50.696;4.396;2022-11-21T15:09:55;9.30;99.90
23100;DHT22;53791;50.696;4.396;2022-11-21T15:12:29;9.30;99.90
23100;DHT22;53791;50.696;4.396;2022-11-21T15:15:03;9.40;99.90
23100;DHT22;53791;50.696;4.396;2022-11-21T15:17:27;9.30;99.90
23100;DHT22;53791;50.696;4.396;2022-11-21T15:20:15;9.40;99.90
23100;DHT22;53791;50.696;4.396;2022-11-21T15:22:36;9.40;99.90
23100;DHT22;53791;50.696;4.396;2022-11-21T15:25:22;9.50;99.90
23100;DHT22;53791;50.696;4.396;2022-11-21T15:27:51;9.40;99.90
23100;DHT22;53791;50.696;4.396;2022-11-21T15:30:25;9.50;99.90
23100;DHT22;53791;50.696;4.396;2022-11-21T15:33:17;9.40;99.90
23100;DHT22;53791;50.696;4.396;2022-11-21T15:35:52;9.50;99.90
23100;DHT22;53791;50.696;4.396;2022-11-21T15:38:40;9.50;99.90
23100;DHT22;53791;50.696;4.396;2022-11-21T15:43:42;9.40;99.90
23100;DHT22;53791;50.696;4.396;2022-11-21T15:46:27;9.50;99.90
23100;DHT22;53791;50.696;4.396;2022-11-21T15:48:58;9.50;99.90
23100;DHT22;53791;50.696;4.396;2022-11-21T15:51:31;9.40;99.90
23100;DHT22;53791;50.696;4.396;2022-11-21T15:54:00;9.50;99.90
23100;DHT22;53791;50.696;4.396;2022-11-21T15:56:28;9.50;99.90
23100;DHT22;53791;50.696;4.396;2022-11-21T15:58:55;9.40;99.90
23100;DHT22;53791;50.696;4.396;2022-11-21T16:01:24;9.40;99.90
23100;DHT22;53791;50.696;4.396;2022-11-21T16:03:56;9.60;99.90
23100;DHT22;53791;50.696;4.396;2022-11-21T16:06:25;9.50;99.90
23100;DHT22;53791;50.696;4.396;2022-11-21T16:08:54;9.50;99.90
23100;DHT22;53791;50.696;4.396;2022-11-21T16:11:33;9.50;99.90
23100;DHT22;53791;50.696;4.396;2022-11-21T16:14:04;9.40;99.90
23100;DHT22;53791;50.696;4.396;2022-11-21T16:16:35;9.40;99.90
23100;DHT22;53791;50.696;4.396;2022-11-21T16:19:02;9.30;99.90
23100;DHT22;53791;50.696;4.396;2022-11-21T16:21:29;9.30;99.90
23100;DHT22;53791;50.696;4.396;2022-11-21T16:23:57;9.20;99.90
23100;DHT22;53791;50.696;4.396;2022-11-21T16:26:24;9.10;99.90
23100;DHT22;53791;50.696;4.396;2022-11-21T16:28:54;9.00;99.90
23100;DHT22;53791;50.696;4.396;2022-11-21T16:31:24;8.90;99.90
23100;DHT22;53791;50.696;4.396;2022-11-21T16:33:53;8.90;99.90
23100;DHT22;53791;50.696;4.396;2022-11-21T16:36:26;8.90;99.90
23100;DHT22;53791;50.696;4.396;2022-11-21T16:38:54;8.80;99.90
23100;DHT22;53791;50.696;4.396;2022-11-21T16:41:23;8.60;99.90
23100;DHT22;53791;50.696;4.396;2022-11-21T16:43:52;8.50;99.90
23100;DHT22;53791;50.696;4.396;2022-11-21T16:46:22;8.60;99.90
23100;DHT22;53791;50.696;4.396;2022-11-21T16:48:58;8.60;99.90
23100;DHT22;53791;50.696;4.396;2022-11-21T16:51:27;8.60;99.90
23100;DHT22;53791;50.696;4.396;2022-11-21T16:53:56;8.50;99.90
23100;DHT22;53791;50.696;4.396;2022-11-21T16:56:24;8.50;99.90
23100;DHT22;53791;50.696;4.396;2022-11-21T16:58:54;8.40;99.90
23100;DHT22;53791;50.696;4.396;2022-11-21T17:01:23;8.40;99.90
23100;DHT22;53791;50.696;4.396;2022-11-21T17:03:51;8.40;99.90
23100;DHT22;53791;50.696;4.396;2022-11-21T17:06:22;8.30;99.90
23100;DHT22;53791;50.696;4.396;2022-11-21T17:08:49;8.20;99.90
23100;DHT22;53791;50.696;4.396;2022-11-21T17:11:22;8.20;99.90
23100;DHT22;53791;50.696;4.396;2022-11-21T17:13:51;8.10;99.90
23100;DHT22;53791;50.696;4.396;2022-11-21T17:16:20;8.10;99.90
23100;DHT22;53791;50.696;4.396;2022-11-21T17:18:56;7.90;99.90
23100;DHT22;53791;50.696;4.396;2022-11-21T17:21:25;7.70;99.90
23100;DHT22;53791;50.696;4.396;2022-11-21T17:23:53;7.60;99.90
23100;DHT22;53791;50.696;4.396;2022-11-21T17:26:23;7.60;99.90
23100;DHT22;53791;50.696;4.396;2022-11-21T17:28:55;7.50;99.90
23100;DHT22;53791;50.696;4.396;2022-11-21T17:31:23;7.40;99.90
23100;DHT22;53791;50.696;4.396;2022-11-21T17:33:51;7.40;99.90
23100;DHT22;53791;50.696;4.396;2022-11-21T17:36:22;7.30;99.90
23100;DHT22;53791;50.696;4.396;2022-11-21T17:38:51;7.30;99.90
23100;DHT22;53791;50.696;4.396;2022-11-21T17:41:21;7.30;99.90